createdAt,value
2018-04-11T00:00:07.397Z,9.11
2018-04-11T00:02:34.879Z,9.08
2018-04-11T00:05:02.374Z,9.05
2018-04-11T00:07:29.856Z,8.93
2018-04-11T00:09:57.343Z,8.98
2018-04-11T00:12:24.822Z,8.98
2018-04-11T00:14:52.309Z,8.97
2018-04-11T00:17:19.804Z,8.88
2018-04-11T00:19:47.291Z,8.84
2018-04-11T00:22:14.773Z,8.85
2018-04-11T00:24:42.249Z,8.86
2018-04-11T00:27:09.800Z,8.90
2018-04-11T00:29:37.267Z,8.81
2018-04-11T00:32:04.752Z,8.79
2018-04-11T00:34:32.260Z,8.71
2018-04-11T00:36:59.749Z,8.70
2018-04-11T00:39:27.221Z,8.61
2018-04-11T00:41:54.844Z,8.67
2018-04-11T00:44:22.341Z,8.66
2018-04-11T00:46:49.821Z,8.61
2018-04-11T00:49:17.821Z,8.56
2018-04-11T00:51:45.310Z,8.57
2018-04-11T00:54:12.815Z,8.51
2018-04-11T00:56:40.324Z,8.52
2018-04-11T00:59:07.806Z,8.54
2018-04-11T01:01:35.316Z,8.51
2018-04-11T01:04:02.813Z,8.51
2018-04-11T01:06:30.357Z,8.42
2018-04-11T01:08:57.851Z,8.47
2018-04-11T01:11:25.446Z,8.50
2018-04-11T01:13:53.070Z,8.51
2018-04-11T01:16:20.615Z,8.47
2018-04-11T01:18:48.097Z,8.47
2018-04-11T01:21:15.607Z,8.51
2018-04-11T01:23:43.110Z,8.49
2018-04-11T01:26:10.568Z,8.50
2018-04-11T01:28:38.075Z,8.53
2018-04-11T01:31:05.585Z,8.52
2018-04-11T01:33:33.058Z,8.52
2018-04-11T01:36:00.590Z,8.49
2018-04-11T01:38:28.108Z,8.47
2018-04-11T01:40:55.571Z,8.46
2018-04-11T01:43:23.045Z,8.54
2018-04-11T01:45:50.537Z,8.59
2018-04-11T01:48:18.031Z,8.57
2018-04-11T01:50:46.349Z,8.59
2018-04-11T01:53:13.834Z,8.54
2018-04-11T01:55:41.289Z,8.60
2018-04-11T01:58:08.812Z,8.60
2018-04-11T02:00:36.309Z,8.52
2018-04-11T02:03:03.818Z,8.46
2018-04-11T02:05:31.293Z,8.47
2018-04-11T02:07:58.785Z,8.46
2018-04-11T02:10:26.273Z,8.47
2018-04-11T02:12:53.747Z,8.42
2018-04-11T02:15:21.316Z,8.31
2018-04-11T02:17:48.825Z,8.25
2018-04-11T02:20:16.339Z,8.23
2018-04-11T02:22:43.820Z,8.20
2018-04-11T02:25:11.303Z,8.12
2018-04-11T02:27:38.830Z,8.09
2018-04-11T02:30:06.413Z,8.04
2018-04-11T02:32:33.899Z,8.01
2018-04-11T02:35:01.422Z,7.99
2018-04-11T02:37:28.927Z,7.90
2018-04-11T02:39:56.428Z,7.80
2018-04-11T02:42:23.957Z,7.76
2018-04-11T02:44:51.489Z,7.67
2018-04-11T02:47:18.955Z,7.63
2018-04-11T02:49:46.438Z,7.59
2018-04-11T02:52:13.934Z,7.57
2018-04-11T02:54:41.453Z,7.55
2018-04-11T02:57:08.967Z,7.54
2018-04-11T02:59:36.461Z,7.56
2018-04-11T03:02:03.930Z,7.51
2018-04-11T03:04:31.439Z,7.43
2018-04-11T03:06:58.945Z,7.45
2018-04-11T03:09:26.488Z,7.41
2018-04-11T03:11:53.984Z,7.41
2018-04-11T03:14:21.525Z,7.32
2018-04-11T03:16:49.011Z,7.36
2018-04-11T03:19:16.482Z,7.32
2018-04-11T03:21:44.048Z,7.27
2018-04-11T03:24:11.589Z,7.24
2018-04-11T03:26:39.097Z,7.23
2018-04-11T03:29:06.614Z,7.24
2018-04-11T03:31:34.251Z,7.25
2018-04-11T03:34:01.757Z,7.26
2018-04-11T03:36:29.275Z,7.25
2018-04-11T03:38:56.805Z,7.17
2018-04-11T03:41:24.343Z,7.15
2018-04-11T03:43:52.089Z,7.21
2018-04-11T03:46:19.681Z,7.24
2018-04-11T03:48:47.201Z,7.16
2018-04-11T03:51:14.694Z,7.12
2018-04-11T03:53:42.188Z,7.10
2018-04-11T03:56:09.725Z,7.00
2018-04-11T03:58:37.244Z,6.95
2018-04-11T04:01:04.747Z,6.90
2018-04-11T04:03:32.260Z,6.90
2018-04-11T04:05:59.739Z,6.89
2018-04-11T04:08:27.232Z,6.83
2018-04-11T04:10:54.741Z,6.81
2018-04-11T04:16:34.382Z,6.80
2018-04-11T04:19:13.834Z,6.78
2018-04-11T04:21:41.403Z,6.80
2018-04-11T04:24:08.913Z,6.80
2018-04-11T04:26:36.450Z,6.81
2018-04-11T04:29:03.945Z,6.84
2018-04-11T04:31:31.471Z,6.88
2018-04-11T04:33:59.009Z,6.88
2018-04-11T04:36:26.524Z,6.90
2018-04-11T04:38:54.068Z,6.97
2018-04-11T04:41:21.609Z,6.96
2018-04-11T04:43:49.124Z,6.95
2018-04-11T04:46:16.633Z,6.98
2018-04-11T04:48:44.165Z,7.00
2018-04-11T04:51:11.697Z,7.04
2018-04-11T04:53:39.214Z,7.03
2018-04-11T04:56:06.764Z,6.99
2018-04-11T04:58:34.273Z,7.04
2018-04-11T05:01:01.792Z,7.03
2018-04-11T05:03:29.322Z,7.06
2018-04-11T05:05:56.864Z,6.97
2018-04-11T05:08:24.357Z,7.08
2018-04-11T05:10:51.854Z,7.08
2018-04-11T05:13:19.502Z,7.12
2018-04-11T05:15:46.999Z,7.17
2018-04-11T05:18:14.496Z,7.10
2018-04-11T05:20:42.069Z,7.28
2018-04-11T05:23:09.570Z,7.28
2018-04-11T05:25:37.072Z,7.30
2018-04-11T05:28:04.572Z,7.47
2018-04-11T05:30:32.066Z,7.47
2018-04-11T05:32:59.612Z,7.46
2018-04-11T05:35:27.109Z,7.49
2018-04-11T05:37:54.580Z,7.49
2018-04-11T05:40:22.084Z,7.60
2018-04-11T05:42:49.605Z,7.63
2018-04-11T05:45:17.126Z,7.65
2018-04-11T05:47:44.686Z,7.67
2018-04-11T05:50:12.259Z,7.85
2018-04-11T05:52:39.786Z,7.79
2018-04-11T05:55:07.300Z,7.96
2018-04-11T05:57:34.823Z,7.99
2018-04-11T06:00:02.301Z,8.10
2018-04-11T06:02:29.816Z,8.09
2018-04-11T06:04:57.320Z,8.28
2018-04-11T06:07:24.801Z,8.40
2018-04-11T06:09:52.276Z,8.53
2018-04-11T06:12:19.773Z,8.56
2018-04-11T06:14:47.345Z,8.70
2018-04-11T06:17:15.005Z,8.76
2018-04-11T06:19:42.496Z,8.91
2018-04-11T06:22:09.972Z,8.99
2018-04-11T06:24:37.473Z,9.06
2018-04-11T06:27:05.120Z,8.99
2018-04-11T06:29:32.593Z,9.16
2018-04-11T06:32:00.125Z,9.15
2018-04-11T06:34:27.686Z,9.48
2018-04-11T06:36:55.210Z,9.44
2018-04-11T06:39:22.711Z,9.67
2018-04-11T06:41:50.275Z,9.85
2018-04-11T06:44:17.898Z,10.06
2018-04-11T06:46:45.377Z,9.99
2018-04-11T06:49:12.862Z,10.07
2018-04-11T06:51:40.369Z,10.26
2018-04-11T06:54:07.877Z,10.35
2018-04-11T06:56:35.382Z,10.09
2018-04-11T06:59:02.898Z,10.43
2018-04-11T07:01:30.606Z,10.42
2018-04-11T07:03:58.107Z,10.66
2018-04-11T07:06:25.594Z,10.60
2018-04-11T07:08:53.083Z,10.62
2018-04-11T07:11:20.613Z,10.81
2018-04-11T07:13:48.125Z,10.96
2018-04-11T07:16:15.620Z,11.03
2018-04-11T07:18:43.114Z,11.39
2018-04-11T07:21:10.659Z,11.41
2018-04-11T07:23:38.187Z,11.60
2018-04-11T07:26:05.689Z,11.62
2018-04-11T07:28:33.255Z,11.67
2018-04-11T07:31:00.789Z,11.73
2018-04-11T07:33:28.260Z,11.85
2018-04-11T07:35:55.733Z,11.86
2018-04-11T07:38:23.368Z,12.08
2018-04-11T07:40:50.880Z,11.86
2018-04-11T07:43:18.389Z,12.35
2018-04-11T07:45:45.896Z,12.57
2018-04-11T07:48:13.469Z,12.32
2018-04-11T07:50:40.961Z,12.65
2018-04-11T07:53:08.440Z,12.50
2018-04-11T07:55:35.933Z,12.71
2018-04-11T07:58:03.513Z,12.23
2018-04-11T08:00:30.995Z,12.86
2018-04-11T08:02:58.499Z,12.98
2018-04-11T08:05:25.973Z,12.78
2018-04-11T08:07:53.445Z,13.13
2018-04-11T08:10:20.934Z,12.87
2018-04-11T08:12:48.557Z,13.05
2018-04-11T08:15:16.036Z,13.46
2018-04-11T08:17:43.569Z,13.66
2018-04-11T08:20:11.055Z,13.60
2018-04-11T08:22:38.549Z,13.82
2018-04-11T08:25:06.104Z,14.26
2018-04-11T08:27:33.687Z,14.46
2018-04-11T08:30:01.309Z,14.53
2018-04-11T08:32:28.790Z,14.66
2018-04-11T08:34:56.275Z,14.88
2018-04-11T08:37:23.790Z,14.55
2018-04-11T08:39:51.317Z,14.64
2018-04-11T08:42:18.935Z,14.53
2018-04-11T08:44:46.444Z,15.00
2018-04-11T08:47:13.967Z,15.15
2018-04-11T08:49:41.471Z,15.24
2018-04-11T08:52:09.021Z,15.55
2018-04-11T08:54:36.510Z,15.47
2018-04-11T08:57:04.057Z,15.70
2018-04-11T08:59:31.560Z,16.01
2018-04-11T09:01:59.048Z,15.95
2018-04-11T09:04:26.535Z,15.94
2018-04-11T09:06:54.036Z,15.92
2018-04-11T09:09:21.524Z,16.18
2018-04-11T09:11:49.095Z,16.04
2018-04-11T09:14:16.607Z,16.04
2018-04-11T09:16:44.092Z,16.44
2018-04-11T09:19:11.582Z,16.31
2018-04-11T09:21:39.101Z,16.81
2018-04-11T09:24:06.603Z,16.88
2018-04-11T09:26:34.211Z,16.71
2018-04-11T09:29:01.718Z,16.53
2018-04-11T09:31:29.228Z,16.71
2018-04-11T09:33:56.708Z,16.65
2018-04-11T09:36:24.235Z,17.05
2018-04-11T09:38:51.722Z,17.26
2018-04-11T09:41:19.285Z,17.27
2018-04-11T09:43:46.791Z,17.27
2018-04-11T09:46:14.293Z,17.04
2018-04-11T09:48:41.796Z,17.20
2018-04-11T09:51:09.566Z,17.53
2018-04-11T09:53:37.049Z,17.68
2018-04-11T09:56:04.517Z,18.03
2018-04-11T09:58:32.002Z,17.88
2018-04-11T10:00:59.515Z,18.21
2018-04-11T10:03:27.006Z,18.56
2018-04-11T10:05:54.521Z,18.43
2018-04-11T10:08:22.039Z,18.62
2018-04-11T10:10:49.568Z,18.57
2018-04-11T10:13:17.202Z,18.14
2018-04-11T10:15:44.685Z,18.27
2018-04-11T10:18:12.170Z,18.12
2018-04-11T10:20:39.655Z,18.07
2018-04-11T10:23:07.143Z,18.11
2018-04-11T10:25:34.679Z,18.23
2018-04-11T10:28:02.201Z,18.68
2018-04-11T10:30:30.042Z,18.68
2018-04-11T10:32:57.520Z,19.14
2018-04-11T10:35:25.035Z,18.77
2018-04-11T10:37:52.576Z,18.83
2018-04-11T10:40:20.285Z,19.23
2018-04-11T10:42:47.794Z,19.30
2018-04-11T10:45:15.306Z,19.35
2018-04-11T10:47:42.843Z,19.18
2018-04-11T10:50:10.335Z,19.09
2018-04-11T10:52:37.844Z,19.11
2018-04-11T10:55:05.465Z,18.91
2018-04-11T10:57:32.962Z,18.87
2018-04-11T11:00:00.489Z,18.95
2018-04-11T11:02:27.981Z,19.65
2018-04-11T11:04:55.538Z,19.18
2018-04-11T11:07:23.037Z,19.55
2018-04-11T11:09:50.839Z,19.84
2018-04-11T11:12:18.309Z,20.13
2018-04-11T11:14:45.797Z,19.67
2018-04-11T11:17:13.395Z,19.94
2018-04-11T11:19:52.728Z,19.80
2018-04-11T11:22:20.204Z,19.86
2018-04-11T11:24:47.677Z,19.84
2018-04-11T11:27:15.288Z,20.50
2018-04-11T11:29:42.781Z,20.49
2018-04-11T11:32:10.335Z,20.96
2018-04-11T11:34:37.867Z,21.53
2018-04-11T11:37:05.372Z,22.81
2018-04-11T11:39:32.868Z,24.18
2018-04-11T11:42:00.461Z,26.23
2018-04-11T11:44:27.938Z,27.78
2018-04-11T11:46:55.429Z,27.59
2018-04-11T11:49:22.907Z,28.47
2018-04-11T11:51:59.265Z,29.14
2018-04-11T11:54:37.586Z,30.99
2018-04-11T11:57:09.545Z,31.17
2018-04-11T11:59:38.447Z,31.65
2018-04-11T12:02:16.122Z,32.44
2018-04-11T12:04:54.425Z,33.02
2018-04-11T12:07:22.825Z,32.88
2018-04-11T12:09:50.400Z,31.50
2018-04-11T12:12:17.881Z,31.11
2018-04-11T12:14:45.404Z,32.40
2018-04-11T12:17:12.998Z,33.57
2018-04-11T12:19:40.507Z,33.85
2018-04-11T12:22:08.001Z,34.83
2018-04-11T12:24:35.717Z,34.93
2018-04-11T12:27:03.220Z,33.82
2018-04-11T12:29:30.829Z,33.65
2018-04-11T12:31:58.306Z,34.93
2018-04-11T12:34:25.984Z,35.02
2018-04-11T12:36:53.465Z,34.67
2018-04-11T12:39:23.209Z,34.84
2018-04-11T12:41:50.783Z,35.04
2018-04-11T12:44:18.893Z,34.32
2018-04-11T12:46:46.412Z,35.50
2018-04-11T12:49:13.900Z,33.45
2018-04-11T12:51:41.385Z,35.10
2018-04-11T12:54:08.887Z,35.30
2018-04-11T12:56:36.572Z,36.62
2018-04-11T12:59:04.506Z,38.46
2018-04-11T13:01:32.370Z,36.28
2018-04-11T13:04:01.287Z,35.35
2018-04-11T13:06:29.055Z,33.53
2018-04-11T13:08:56.538Z,30.63
2018-04-11T13:11:24.079Z,28.92
2018-04-11T13:13:51.550Z,27.34
2018-04-11T13:16:19.068Z,27.92
2018-04-11T13:18:46.584Z,29.44
2018-04-11T13:21:14.083Z,34.33
2018-04-11T13:23:41.705Z,35.97
2018-04-11T13:26:09.588Z,38.22
2018-04-11T13:28:37.113Z,37.97
2018-04-11T13:31:04.580Z,38.87
2018-04-11T13:33:32.085Z,40.23
2018-04-11T13:35:59.574Z,40.16
2018-04-11T13:38:27.067Z,35.36
2018-04-11T13:40:54.678Z,31.00
2018-04-11T13:43:22.431Z,29.31
2018-04-11T13:45:49.904Z,27.29
2018-04-11T13:48:17.368Z,26.09
2018-04-11T13:50:44.877Z,25.32
2018-04-11T13:53:12.352Z,28.55
2018-04-11T13:55:39.927Z,32.51
2018-04-11T13:58:07.402Z,32.08
2018-04-11T14:00:34.936Z,28.60
2018-04-11T14:03:02.547Z,27.10
2018-04-11T14:05:30.045Z,26.88
2018-04-11T14:07:57.534Z,28.20
2018-04-11T14:10:25.167Z,31.82
2018-04-11T14:12:53.111Z,30.42
2018-04-11T14:15:20.573Z,31.42
2018-04-11T14:17:48.059Z,31.08
2018-04-11T14:20:15.635Z,28.78
2018-04-11T14:22:43.130Z,26.82
2018-04-11T14:25:10.917Z,26.72
2018-04-11T14:27:38.407Z,27.37
2018-04-11T14:30:05.918Z,30.55
2018-04-11T14:32:33.403Z,34.52
2018-04-11T14:35:00.882Z,34.92
2018-04-11T14:37:28.367Z,34.30
2018-04-11T14:39:55.903Z,32.62
2018-04-11T14:42:23.507Z,32.19
2018-04-11T14:44:51.006Z,32.30
2018-04-11T14:47:18.536Z,30.45
2018-04-11T14:49:46.026Z,28.56
2018-04-11T14:52:13.492Z,26.62
2018-04-11T14:54:40.983Z,24.87
2018-04-11T14:57:08.463Z,24.52
2018-04-11T14:59:35.951Z,23.78
2018-04-11T15:02:03.452Z,25.04
2018-04-11T15:04:31.090Z,25.57
2018-04-11T15:06:58.580Z,28.80
2018-04-11T15:09:26.099Z,31.36
2018-04-11T15:11:53.696Z,30.56
2018-04-11T15:14:21.205Z,31.58
2018-04-11T15:16:48.685Z,32.01
2018-04-11T15:19:16.225Z,33.73
2018-04-11T15:21:43.728Z,33.89
2018-04-11T15:24:11.312Z,32.76
2018-04-11T15:26:38.796Z,30.32
2018-04-11T15:29:06.290Z,27.94
2018-04-11T15:31:33.764Z,27.92
2018-04-11T15:34:01.298Z,26.16
2018-04-11T15:36:28.791Z,25.44
2018-04-11T15:38:56.305Z,25.07
2018-04-11T15:41:23.795Z,23.94
2018-04-11T15:43:51.271Z,23.90
2018-04-11T15:46:30.594Z,24.02
2018-04-11T15:48:58.063Z,24.96
2018-04-11T15:51:25.768Z,26.97
2018-04-11T15:53:53.236Z,28.66
2018-04-11T15:56:20.785Z,31.17
2018-04-11T15:58:48.220Z,31.78
2018-04-11T16:01:15.697Z,31.26
2018-04-11T16:03:43.179Z,32.32
2018-04-11T16:06:10.684Z,33.18
2018-04-11T16:08:38.186Z,32.97
2018-04-11T16:11:05.673Z,33.98
2018-04-11T16:13:33.194Z,33.45
2018-04-11T16:16:00.712Z,31.44
2018-04-11T16:18:28.195Z,30.06
2018-04-11T16:20:55.670Z,28.75
2018-04-11T16:23:23.168Z,28.20
2018-04-11T16:25:50.639Z,28.44
2018-04-11T16:28:18.129Z,27.53
2018-04-11T16:30:45.776Z,27.39
2018-04-11T16:33:13.270Z,25.76
2018-04-11T16:35:40.753Z,24.96
2018-04-11T16:38:08.223Z,24.63
2018-04-11T16:40:35.984Z,24.33
2018-04-11T16:43:03.482Z,23.63
2018-04-11T16:45:31.025Z,23.87
2018-04-11T16:47:58.508Z,23.94
2018-04-11T16:50:25.993Z,24.23
2018-04-11T16:52:53.501Z,23.91
2018-04-11T16:55:21.000Z,24.11
2018-04-11T16:57:48.520Z,22.97
2018-04-11T17:00:16.079Z,22.57
2018-04-11T17:02:43.573Z,22.40
2018-04-11T17:05:11.079Z,21.81
2018-04-11T17:07:38.596Z,21.31
2018-04-11T17:10:06.090Z,20.99
2018-04-11T17:12:39.495Z,20.96
2018-04-11T17:15:16.618Z,20.58
2018-04-11T17:17:44.117Z,20.19
2018-04-11T17:20:11.642Z,20.22
2018-04-11T17:22:57.361Z,20.11
2018-04-11T17:25:44.606Z,19.75
2018-04-11T17:28:26.070Z,19.55
2018-04-11T17:31:04.304Z,19.41
2018-04-11T17:33:34.048Z,19.40
2018-04-11T17:36:06.802Z,19.27
2018-04-11T17:38:39.670Z,19.03
2018-04-11T17:41:07.362Z,18.87
2018-04-11T17:43:46.086Z,18.64
2018-04-11T17:46:13.585Z,18.50
2018-04-11T17:48:48.200Z,18.23
2018-04-11T17:51:16.312Z,18.04
2018-04-11T17:53:46.784Z,17.90
2018-04-11T17:56:15.769Z,17.76
2018-04-11T17:58:46.802Z,17.57
2018-04-11T18:01:14.745Z,17.47
2018-04-11T18:03:45.235Z,17.39
2018-04-11T18:06:13.164Z,17.18
2018-04-11T18:08:47.332Z,17.02
2018-04-11T18:11:14.799Z,16.96
2018-04-11T18:13:42.340Z,16.89
2018-04-11T18:16:10.108Z,16.77
2018-04-11T18:18:37.799Z,16.71
2018-04-11T18:21:05.271Z,16.58
2018-04-11T18:23:32.776Z,16.62
2018-04-11T18:26:00.491Z,16.51
2018-04-11T18:28:27.973Z,16.57
2018-04-11T18:30:55.721Z,16.53
2018-04-11T18:33:33.185Z,16.48
2018-04-11T18:36:00.689Z,16.36
2018-04-11T18:38:28.225Z,16.29
2018-04-11T18:40:55.849Z,16.26
2018-04-11T18:43:23.347Z,16.20
2018-04-11T18:45:51.056Z,16.10
2018-04-11T18:48:18.665Z,15.96
2018-04-11T18:50:46.303Z,15.89
2018-04-11T18:53:13.803Z,15.82
2018-04-11T18:55:41.326Z,15.76
2018-04-11T18:58:08.825Z,15.71
2018-04-11T19:00:36.372Z,15.65
2018-04-11T19:03:03.910Z,15.59
2018-04-11T19:05:31.658Z,15.50
2018-04-11T19:07:59.566Z,15.40
2018-04-11T19:10:29.215Z,15.37
2018-04-11T19:12:56.750Z,15.26
2018-04-11T19:15:24.289Z,15.25
2018-04-11T19:17:51.806Z,15.21
2018-04-11T19:20:19.341Z,15.14
2018-04-11T19:22:46.855Z,15.07
2018-04-11T19:25:40.716Z,15.01
2018-04-11T19:28:09.725Z,14.96
2018-04-11T19:30:38.006Z,14.90
2018-04-11T19:33:06.629Z,14.88
2018-04-11T19:35:35.325Z,14.84
2018-04-11T19:38:02.876Z,14.75
2018-04-11T19:40:30.387Z,14.76
2018-04-11T19:42:57.924Z,14.72
2018-04-11T19:45:25.575Z,14.68
2018-04-11T19:47:54.019Z,14.65
2018-04-11T19:50:21.683Z,14.60
2018-04-11T19:52:52.089Z,14.55
2018-04-11T19:55:38.657Z,14.50
2018-04-11T19:58:16.684Z,14.41
2018-04-11T20:00:48.914Z,14.44
2018-04-11T20:03:23.905Z,14.35
2018-04-11T20:06:06.010Z,14.32
2018-04-11T20:11:20.760Z,14.20
2018-04-11T20:16:31.480Z,14.07
2018-04-11T20:19:09.573Z,14.05
2018-04-11T20:21:37.179Z,14.04
2018-04-11T20:24:04.877Z,14.00
2018-04-11T20:26:48.059Z,13.95
2018-04-11T20:29:26.047Z,13.92
2018-04-11T20:31:54.597Z,13.84
2018-04-11T20:34:22.219Z,13.86
2018-04-11T20:36:52.508Z,13.76
2018-04-11T20:39:20.225Z,13.72
2018-04-11T20:41:49.432Z,13.65
2018-04-11T20:44:17.107Z,13.67
2018-04-11T20:46:48.634Z,13.57
2018-04-11T20:49:16.260Z,13.52
2018-04-11T20:51:47.348Z,13.50
2018-04-11T20:54:14.973Z,13.48
2018-04-11T20:56:42.487Z,13.47
2018-04-11T20:59:12.093Z,13.44
2018-04-11T21:01:40.400Z,13.42
2018-04-11T21:04:08.038Z,13.41
2018-04-11T21:06:36.626Z,13.34
2018-04-11T21:09:04.924Z,13.34
2018-04-11T21:11:36.600Z,13.34
2018-04-11T21:14:05.000Z,13.39
2018-04-11T21:16:42.541Z,13.33
2018-04-11T21:19:10.357Z,13.38
2018-04-11T21:21:38.978Z,13.40
2018-04-11T21:26:54.953Z,13.44
2018-04-11T21:29:25.303Z,13.49
2018-04-11T21:32:06.789Z,13.49
2018-04-11T21:34:34.761Z,13.52
2018-04-11T21:37:02.452Z,13.51
2018-04-11T21:39:30.047Z,13.51
2018-04-11T21:41:57.565Z,13.54
2018-04-11T21:44:26.118Z,13.55
2018-04-11T21:46:54.641Z,13.55
2018-04-11T21:49:22.118Z,13.53
2018-04-11T21:51:49.882Z,13.53
2018-04-11T21:54:17.367Z,13.53
2018-04-11T21:56:44.856Z,13.55
2018-04-11T21:59:12.333Z,13.56
2018-04-11T22:01:39.810Z,13.57
2018-04-11T22:04:07.352Z,13.57
2018-04-11T22:06:34.835Z,13.58
2018-04-11T22:09:02.339Z,13.54
2018-04-11T22:11:29.838Z,13.51
2018-04-11T22:13:57.322Z,13.49
2018-04-11T22:16:24.820Z,13.46
2018-04-11T22:18:52.307Z,13.51
2018-04-11T22:21:19.805Z,13.47
2018-04-11T22:23:47.290Z,13.46
2018-04-11T22:26:14.766Z,13.44
2018-04-11T22:28:42.371Z,13.43
2018-04-11T22:31:09.846Z,13.43
2018-04-11T22:33:37.316Z,13.45
2018-04-11T22:36:04.814Z,13.49
2018-04-11T22:38:32.441Z,13.47
2018-04-11T22:40:59.936Z,13.45
2018-04-11T22:43:27.433Z,13.51
2018-04-11T22:45:54.912Z,13.50
2018-04-11T22:48:22.388Z,13.45
2018-04-11T22:50:49.874Z,13.50
2018-04-11T22:53:17.369Z,13.51
2018-04-11T22:55:44.982Z,13.51
2018-04-11T22:58:12.461Z,13.54
2018-04-11T23:00:39.944Z,13.53
2018-04-11T23:03:07.454Z,13.57
2018-04-11T23:05:35.048Z,13.62
2018-04-11T23:08:02.539Z,13.59
2018-04-11T23:10:30.211Z,13.61
2018-04-11T23:12:57.724Z,13.63
2018-04-11T23:15:25.209Z,13.62
2018-04-11T23:17:52.689Z,13.53
2018-04-11T23:20:20.213Z,13.62
2018-04-11T23:22:47.681Z,13.61
2018-04-11T23:25:15.177Z,13.51
2018-04-11T23:27:42.670Z,13.50
2018-04-11T23:30:10.148Z,13.52
2018-04-11T23:32:37.649Z,13.44
2018-04-11T23:35:05.145Z,13.40
2018-04-11T23:37:32.649Z,13.40
2018-04-11T23:40:00.161Z,13.40
2018-04-11T23:42:27.637Z,13.42
2018-04-11T23:44:55.170Z,13.41
2018-04-11T23:47:22.645Z,13.45
2018-04-11T23:49:50.327Z,13.39
2018-04-11T23:52:17.868Z,13.44
2018-04-11T23:54:45.376Z,13.46
2018-04-11T23:57:12.861Z,13.44
2018-04-11T23:59:40.350Z,13.43
